createdAt,value
2022-10-16T00:01:06.113Z,1.80
2022-10-16T00:03:34.146Z,2.30
2022-10-16T00:06:02.962Z,2.27
2022-10-16T00:08:31.241Z,2.20
2022-10-16T00:11:03.947Z,2.50
2022-10-16T00:13:33.830Z,2.57
2022-10-16T00:16:02.966Z,1.90
2022-10-16T00:18:31.231Z,2.57
2022-10-16T00:21:04.256Z,2.70
2022-10-16T00:23:32.672Z,2.07
2022-10-16T00:26:02.485Z,2.47
2022-10-16T00:28:30.954Z,2.50
2022-10-16T00:31:00.949Z,2.37
2022-10-16T00:33:28.967Z,2.13
2022-10-16T00:35:59.372Z,1.93
2022-10-16T00:38:27.546Z,2.43
2022-10-16T00:40:55.590Z,2.40
2022-10-16T00:43:39.342Z,1.83
2022-10-16T00:46:17.090Z,2.20
2022-10-16T00:48:57.426Z,1.80
2022-10-16T00:51:30.458Z,2.17
2022-10-16T00:53:58.819Z,2.50
2022-10-16T00:56:26.869Z,1.90
2022-10-16T00:58:55.019Z,1.80
2022-10-16T01:01:24.620Z,1.53
2022-10-16T01:03:52.559Z,1.83
2022-10-16T01:09:16.049Z,1.63
2022-10-16T01:11:51.173Z,1.20
2022-10-16T01:14:27.858Z,1.27
2022-10-16T01:17:05.986Z,1.40
2022-10-16T01:19:52.021Z,1.40
2022-10-16T01:22:24.040Z,1.57
2022-10-16T01:24:52.647Z,1.17
2022-10-16T01:27:25.752Z,1.73
2022-10-16T01:29:56.843Z,1.60
2022-10-16T01:32:32.721Z,1.57
2022-10-16T01:35:05.935Z,1.57
2022-10-16T01:37:38.929Z,1.20
2022-10-16T01:40:11.912Z,1.10
2022-10-16T01:42:45.109Z,1.20
2022-10-16T01:45:19.067Z,1.60
2022-10-16T01:47:48.810Z,1.70
2022-10-16T01:50:19.660Z,1.30
2022-10-16T01:52:51.629Z,1.30
2022-10-16T01:55:24.441Z,1.03
2022-10-16T01:57:55.929Z,1.53
2022-10-16T02:00:25.650Z,1.40
2022-10-16T02:02:56.327Z,1.67
2022-10-16T02:05:29.089Z,1.20
2022-10-16T02:07:58.546Z,1.23
2022-10-16T02:10:32.462Z,1.60
2022-10-16T02:13:06.939Z,1.40
2022-10-16T02:15:35.023Z,1.40
2022-10-16T02:18:04.173Z,1.17
2022-10-16T02:20:38.961Z,1.07
2022-10-16T02:23:08.986Z,1.00
2022-10-16T02:25:42.255Z,1.30
2022-10-16T02:28:17.925Z,1.20
2022-10-16T02:30:49.490Z,1.30
2022-10-16T02:33:18.960Z,1.00
2022-10-16T02:35:48.480Z,1.57
2022-10-16T02:38:18.227Z,1.40
2022-10-16T02:40:47.018Z,1.30
2022-10-16T02:43:16.892Z,1.10
2022-10-16T02:45:45.019Z,1.20
2022-10-16T02:48:13.283Z,1.10
2022-10-16T02:50:41.181Z,1.20
2022-10-16T02:53:09.158Z,1.10
2022-10-16T02:55:37.322Z,1.27
2022-10-16T02:58:05.365Z,1.10
2022-10-16T03:00:34.880Z,0.93
2022-10-16T03:03:02.897Z,1.10
2022-10-16T03:05:30.985Z,0.93
2022-10-16T03:08:01.097Z,1.10
2022-10-16T03:10:29.381Z,0.70
2022-10-16T03:12:57.465Z,0.90
2022-10-16T03:15:25.466Z,1.30
2022-10-16T03:17:54.829Z,1.00
2022-10-16T03:20:22.986Z,1.10
2022-10-16T03:22:50.913Z,1.70
2022-10-16T03:25:18.903Z,1.30
2022-10-16T03:27:47.228Z,1.10
2022-10-16T03:30:15.712Z,0.93
2022-10-16T03:32:43.678Z,1.00
2022-10-16T03:35:13.285Z,1.20
2022-10-16T03:37:41.753Z,1.20
2022-10-16T03:40:10.967Z,1.30
2022-10-16T03:42:38.992Z,1.23
2022-10-16T03:45:08.127Z,0.97
2022-10-16T03:47:36.253Z,1.30
2022-10-16T03:50:05.371Z,1.20
2022-10-16T03:52:34.848Z,1.20
2022-10-16T03:55:02.906Z,1.20
2022-10-16T03:57:30.836Z,1.07
2022-10-16T03:59:58.832Z,0.97
2022-10-16T04:02:26.978Z,1.33
2022-10-16T04:04:55.018Z,0.93
2022-10-16T04:07:23.328Z,1.10
2022-10-16T04:09:53.210Z,0.90
2022-10-16T04:12:21.235Z,1.20
2022-10-16T04:14:49.276Z,1.10
2022-10-16T04:17:18.255Z,1.13
2022-10-16T04:19:46.505Z,1.10
2022-10-16T04:22:15.287Z,1.10
2022-10-16T04:24:43.467Z,1.20
2022-10-16T04:27:12.994Z,0.83
2022-10-16T04:29:41.112Z,1.10
2022-10-16T04:32:10.685Z,1.00
2022-10-16T04:34:39.335Z,1.10
2022-10-16T04:37:07.709Z,1.23
2022-10-16T04:39:35.764Z,0.80
2022-10-16T04:42:03.826Z,1.00
2022-10-16T04:44:33.178Z,1.17
2022-10-16T04:47:01.350Z,1.03
2022-10-16T04:49:29.260Z,1.10
2022-10-16T04:51:57.281Z,1.10
2022-10-16T04:54:25.229Z,0.90
2022-10-16T04:56:53.474Z,1.00
2022-10-16T04:59:23.374Z,1.20
2022-10-16T05:01:52.824Z,1.30
2022-10-16T05:04:20.744Z,1.30
2022-10-16T05:06:50.319Z,1.00
2022-10-16T05:09:18.605Z,1.53
2022-10-16T05:11:46.610Z,1.20
2022-10-16T05:14:14.967Z,1.00
2022-10-16T05:16:43.007Z,1.20
2022-10-16T05:19:28.991Z,1.00
2022-10-16T05:21:57.484Z,1.47
2022-10-16T05:24:25.668Z,1.23
2022-10-16T05:26:53.691Z,1.10
2022-10-16T05:29:21.902Z,1.30
2022-10-16T05:31:52.972Z,1.00
2022-10-16T05:34:22.862Z,1.57
2022-10-16T05:36:51.186Z,1.00
2022-10-16T05:39:19.314Z,1.27
2022-10-16T05:41:47.528Z,1.20
2022-10-16T05:44:15.421Z,0.97
2022-10-16T05:46:43.408Z,1.27
2022-10-16T05:49:11.337Z,1.17
2022-10-16T05:51:41.181Z,1.20
2022-10-16T05:54:09.446Z,1.20
2022-10-16T05:56:37.325Z,1.53
2022-10-16T05:59:05.964Z,1.10
2022-10-16T06:01:34.751Z,1.30
2022-10-16T06:04:03.186Z,1.33
2022-10-16T06:06:32.010Z,1.27
2022-10-16T06:09:01.380Z,1.50
2022-10-16T06:11:31.293Z,1.33
2022-10-16T06:14:02.755Z,1.33
2022-10-16T06:16:31.097Z,1.53
2022-10-16T06:19:00.312Z,1.67
2022-10-16T06:21:29.830Z,1.53
2022-10-16T06:23:58.705Z,1.57
2022-10-16T06:26:30.013Z,1.60
2022-10-16T06:28:59.475Z,1.30
2022-10-16T06:31:31.760Z,1.30
2022-10-16T06:34:00.413Z,1.43
2022-10-16T06:36:28.658Z,1.50
2022-10-16T06:38:56.731Z,1.30
2022-10-16T06:41:25.410Z,1.47
2022-10-16T06:43:54.904Z,1.60
2022-10-16T06:46:24.710Z,1.40
2022-10-16T06:48:53.103Z,1.70
2022-10-16T06:51:23.722Z,1.53
2022-10-16T06:54:02.964Z,0.93
2022-10-16T06:56:33.449Z,1.13
2022-10-16T06:59:03.401Z,1.43
2022-10-16T07:01:31.520Z,1.43
2022-10-16T07:03:59.637Z,1.27
2022-10-16T07:06:28.876Z,1.60
2022-10-16T07:08:57.067Z,2.07
2022-10-16T07:11:25.907Z,1.83
2022-10-16T07:13:56.082Z,2.70
2022-10-16T07:16:27.622Z,3.03
2022-10-16T07:18:59.542Z,2.47
2022-10-16T07:21:30.007Z,2.27
2022-10-16T07:24:00.167Z,2.17
2022-10-16T07:26:30.000Z,1.67
2022-10-16T07:28:58.408Z,1.70
2022-10-16T07:31:28.717Z,1.77
2022-10-16T07:33:56.972Z,1.53
2022-10-16T07:36:25.075Z,1.43
2022-10-16T07:38:55.619Z,1.30
2022-10-16T07:41:27.134Z,1.70
2022-10-16T07:43:55.943Z,1.23
2022-10-16T07:46:24.908Z,1.37
2022-10-16T07:48:54.785Z,1.10
2022-10-16T07:51:24.670Z,1.20
2022-10-16T07:53:53.315Z,1.90
2022-10-16T07:56:22.586Z,1.50
2022-10-16T07:58:51.721Z,1.17
2022-10-16T08:01:20.498Z,1.90
2022-10-16T08:03:50.553Z,1.20
2022-10-16T08:06:25.092Z,1.10
2022-10-16T08:08:56.449Z,1.40
2022-10-16T08:11:24.591Z,1.10
2022-10-16T08:13:52.475Z,1.30
2022-10-16T08:16:20.450Z,1.17
2022-10-16T08:18:48.463Z,1.30
2022-10-16T08:21:21.261Z,1.23
2022-10-16T08:23:54.511Z,1.10
2022-10-16T08:26:26.860Z,1.43
2022-10-16T08:28:55.064Z,0.90
2022-10-16T08:31:23.860Z,1.00
2022-10-16T08:33:53.468Z,1.17
2022-10-16T08:36:23.078Z,1.17
2022-10-16T08:38:54.522Z,1.43
2022-10-16T08:41:54.589Z,1.17
2022-10-16T08:44:55.053Z,1.30
2022-10-16T08:47:27.312Z,1.30
2022-10-16T08:50:01.401Z,1.50
2022-10-16T08:52:36.426Z,1.30
2022-10-16T08:55:05.962Z,1.33
2022-10-16T08:57:33.990Z,1.30
2022-10-16T09:00:11.133Z,1.13
2022-10-16T09:02:43.122Z,1.17
2022-10-16T09:05:24.558Z,1.10
2022-10-16T09:08:05.612Z,0.90
2022-10-16T09:10:43.608Z,0.70
2022-10-16T09:13:19.645Z,0.90
2022-10-16T09:15:56.953Z,1.10
2022-10-16T09:18:32.770Z,0.70
2022-10-16T09:21:09.484Z,0.80
2022-10-16T09:23:40.009Z,0.82
2022-10-16T09:26:12.224Z,1.10
2022-10-16T09:28:40.619Z,0.95
2022-10-16T09:31:17.479Z,1.15
2022-10-16T09:33:47.430Z,1.10
2022-10-16T09:36:16.209Z,0.68
2022-10-16T09:38:45.621Z,0.85
2022-10-16T09:41:20.668Z,0.80
2022-10-16T09:43:51.931Z,1.00
2022-10-16T09:46:27.177Z,1.08
2022-10-16T09:48:57.896Z,0.60
2022-10-16T09:51:27.877Z,0.85
2022-10-16T09:54:02.569Z,1.00
2022-10-16T09:56:33.548Z,1.65
2022-10-16T09:59:04.578Z,0.82
2022-10-16T10:01:37.868Z,0.82
2022-10-16T10:04:06.798Z,1.08
2022-10-16T10:06:39.017Z,0.90
2022-10-16T10:09:21.070Z,0.57
2022-10-16T10:11:56.793Z,0.90
2022-10-16T10:14:34.465Z,1.13
2022-10-16T10:17:13.832Z,0.55
2022-10-16T10:19:44.116Z,0.70
2022-10-16T10:22:43.027Z,0.80
2022-10-16T10:25:22.089Z,0.70
2022-10-16T10:28:03.596Z,0.82
2022-10-16T10:30:40.676Z,1.00
2022-10-16T10:33:21.206Z,0.70
2022-10-16T10:35:57.709Z,0.57
2022-10-16T10:38:33.017Z,0.65
2022-10-16T10:41:15.313Z,0.95
2022-10-16T10:43:56.665Z,0.88
2022-10-16T10:46:33.580Z,1.02
2022-10-16T10:49:21.878Z,0.65
2022-10-16T10:52:00.685Z,0.85
2022-10-16T10:54:36.047Z,0.70
2022-10-16T10:57:12.537Z,0.65
2022-10-16T10:59:57.580Z,0.50
2022-10-16T11:02:33.988Z,1.23
2022-10-16T11:05:25.266Z,0.50
2022-10-16T11:07:57.382Z,0.40
2022-10-16T11:10:30.418Z,0.40
2022-10-16T11:13:10.269Z,1.33
2022-10-16T11:15:43.580Z,0.50
2022-10-16T11:18:19.021Z,0.65
2022-10-16T11:20:53.139Z,0.80
2022-10-16T11:23:27.884Z,0.60
2022-10-16T11:26:00.630Z,0.70
2022-10-16T11:28:34.906Z,0.55
2022-10-16T11:31:09.788Z,0.50
2022-10-16T11:33:42.374Z,0.60
2022-10-16T11:36:15.390Z,0.32
2022-10-16T11:38:50.372Z,0.50
2022-10-16T11:41:26.814Z,0.43
2022-10-16T11:44:07.579Z,0.60
2022-10-16T11:46:52.541Z,0.50
2022-10-16T11:49:28.994Z,0.50
2022-10-16T11:52:08.123Z,0.30
2022-10-16T11:54:43.529Z,0.57
2022-10-16T11:57:16.512Z,0.40
2022-10-16T11:59:51.415Z,0.60
2022-10-16T12:02:46.295Z,0.90
2022-10-16T12:05:24.921Z,0.38
2022-10-16T12:08:01.845Z,0.45
2022-10-16T12:10:33.355Z,0.60
2022-10-16T12:13:01.433Z,0.68
2022-10-16T12:15:58.091Z,0.43
2022-10-16T12:18:24.227Z,0.43
2022-10-16T12:21:00.404Z,0.30
2022-10-16T12:23:28.938Z,0.55
2022-10-16T12:25:58.760Z,0.40
2022-10-16T12:28:30.709Z,0.70
2022-10-16T12:31:03.094Z,0.32
2022-10-16T12:33:33.982Z,0.50
2022-10-16T12:36:05.285Z,0.40
2022-10-16T12:38:38.975Z,0.43
2022-10-16T12:41:10.636Z,0.40
2022-10-16T12:43:44.053Z,0.38
2022-10-16T12:46:37.629Z,0.30
2022-10-16T12:49:31.208Z,0.30
2022-10-16T12:51:59.978Z,0.63
2022-10-16T12:54:31.605Z,0.47
2022-10-16T12:57:16.295Z,0.70
2022-10-16T12:59:52.924Z,0.90
2022-10-16T13:02:47.199Z,0.40
2022-10-16T13:05:27.679Z,0.90
2022-10-16T13:08:05.547Z,0.60
2022-10-16T13:10:42.362Z,0.40
2022-10-16T13:13:37.336Z,0.50
2022-10-16T13:16:17.922Z,0.47
2022-10-16T13:18:57.550Z,0.50
2022-10-16T13:21:41.062Z,0.30
2022-10-16T13:24:28.006Z,0.90
2022-10-16T13:27:03.487Z,0.30
2022-10-16T13:29:33.457Z,0.40
2022-10-16T13:32:03.541Z,0.57
2022-10-16T13:34:32.761Z,0.70
2022-10-16T13:37:00.802Z,0.63
2022-10-16T13:39:30.232Z,0.40
2022-10-16T13:42:08.082Z,0.40
2022-10-16T13:44:44.515Z,0.57
2022-10-16T13:47:20.826Z,0.30
2022-10-16T13:50:02.590Z,0.80
2022-10-16T13:52:30.827Z,0.30
2022-10-16T13:55:01.775Z,0.80
2022-10-16T13:57:30.938Z,0.57
2022-10-16T13:59:58.859Z,0.43
2022-10-16T14:02:30.447Z,0.50
2022-10-16T14:05:00.722Z,0.40
2022-10-16T14:07:30.552Z,0.30
2022-10-16T14:10:02.632Z,0.77
2022-10-16T14:12:31.050Z,0.60
2022-10-16T14:15:01.813Z,0.50
2022-10-16T14:17:31.919Z,0.60
2022-10-16T14:20:06.419Z,0.90
2022-10-16T14:22:37.042Z,0.85
2022-10-16T14:25:23.663Z,3.40
2022-10-16T14:31:08.164Z,0.70
2022-10-16T14:33:36.679Z,0.50
2022-10-16T14:36:12.173Z,0.63
2022-10-16T14:38:42.046Z,0.50
2022-10-16T14:41:10.869Z,0.60
2022-10-16T14:43:41.377Z,0.65
2022-10-16T14:46:15.220Z,5.32
2022-10-16T14:48:44.343Z,3.97
2022-10-16T14:51:16.408Z,2.80
2022-10-16T14:53:44.474Z,6.03
2022-10-16T14:56:20.277Z,3.90
2022-10-16T14:58:48.319Z,1.80
2022-10-16T15:01:16.499Z,4.63
2022-10-16T15:03:45.039Z,1.98
2022-10-16T15:06:14.848Z,1.50
2022-10-16T15:08:43.453Z,1.55
2022-10-16T15:11:14.684Z,1.05
2022-10-16T15:13:42.811Z,0.73
2022-10-16T15:16:13.373Z,1.08
2022-10-16T15:18:41.449Z,1.48
2022-10-16T15:21:10.079Z,1.33
2022-10-16T15:23:39.797Z,0.85
2022-10-16T15:26:07.739Z,1.17
2022-10-16T15:28:36.782Z,1.63
2022-10-16T15:31:07.358Z,1.90
2022-10-16T15:33:39.637Z,15.20
2022-10-16T15:36:08.956Z,8.27
2022-10-16T15:38:40.463Z,20.50
2022-10-16T15:41:08.361Z,23.13
2022-10-16T15:43:39.024Z,16.13
2022-10-16T15:46:09.518Z,5.43
2022-10-16T15:48:37.578Z,6.43
2022-10-16T15:51:08.368Z,7.22
2022-10-16T15:53:38.885Z,7.40
2022-10-16T15:56:10.172Z,7.93
2022-10-16T15:58:38.450Z,7.00
2022-10-16T16:01:07.692Z,8.00
2022-10-16T16:03:36.902Z,5.70
2022-10-16T16:06:09.115Z,5.67
2022-10-16T16:08:37.975Z,5.27
2022-10-16T16:11:09.630Z,4.53
2022-10-16T16:13:39.573Z,3.67
2022-10-16T16:16:09.773Z,7.00
2022-10-16T16:18:38.082Z,6.73
2022-10-16T16:21:07.109Z,2.60
2022-10-16T16:23:37.558Z,3.53
2022-10-16T16:26:09.175Z,5.97
2022-10-16T16:28:37.504Z,3.30
2022-10-16T16:31:05.680Z,4.03
2022-10-16T16:33:34.109Z,3.30
2022-10-16T16:36:03.527Z,2.83
2022-10-16T16:38:31.762Z,2.67
2022-10-16T16:40:59.674Z,2.30
2022-10-16T16:43:29.684Z,1.60
2022-10-16T16:45:57.662Z,1.93
2022-10-16T16:48:25.817Z,1.30
2022-10-16T16:50:53.882Z,1.67
2022-10-16T16:53:22.977Z,1.97
2022-10-16T16:55:51.068Z,2.63
2022-10-16T16:58:18.963Z,2.53
2022-10-16T17:00:56.735Z,3.30
2022-10-16T17:03:25.377Z,3.60
2022-10-16T17:06:00.309Z,4.27
2022-10-16T17:08:29.266Z,5.43
2022-10-16T17:10:57.988Z,6.03
2022-10-16T17:13:27.398Z,8.57
2022-10-16T17:15:57.211Z,6.50
2022-10-16T17:18:25.975Z,5.33
2022-10-16T17:20:53.967Z,4.37
2022-10-16T17:23:22.275Z,4.67
2022-10-16T17:25:50.190Z,4.20
2022-10-16T17:28:18.454Z,3.77
2022-10-16T17:30:46.730Z,4.40
2022-10-16T17:33:16.250Z,3.87
2022-10-16T17:35:46.290Z,3.37
2022-10-16T17:38:16.858Z,3.23
2022-10-16T17:40:44.986Z,3.80
2022-10-16T17:43:13.140Z,3.10
2022-10-16T17:45:41.162Z,2.20
2022-10-16T17:48:09.254Z,2.67
2022-10-16T17:50:41.594Z,2.20
2022-10-16T17:53:09.930Z,2.90
2022-10-16T17:55:40.064Z,3.47
2022-10-16T17:58:08.291Z,2.63
2022-10-16T18:00:36.449Z,2.67
2022-10-16T18:03:04.996Z,2.87
2022-10-16T18:05:32.938Z,2.77
2022-10-16T18:08:02.376Z,2.70
2022-10-16T18:10:31.155Z,2.60
2022-10-16T18:12:59.122Z,2.57
2022-10-16T18:15:27.194Z,3.30
2022-10-16T18:17:55.198Z,3.13
2022-10-16T18:20:23.478Z,3.67
2022-10-16T18:22:52.185Z,3.20
2022-10-16T18:25:21.581Z,3.30
2022-10-16T18:27:49.618Z,5.03
2022-10-16T18:30:17.803Z,3.53
2022-10-16T18:32:45.791Z,5.33
2022-10-16T18:37:46.757Z,5.60
2022-10-16T18:40:14.752Z,6.40
2022-10-16T18:42:44.136Z,8.30
2022-10-16T18:45:12.378Z,6.13
2022-10-16T18:47:41.967Z,8.00
2022-10-16T18:50:11.832Z,6.97
2022-10-16T18:52:40.682Z,8.03
2022-10-16T18:55:10.814Z,10.13
2022-10-16T18:57:38.850Z,9.37
2022-10-16T19:00:09.885Z,9.53
2022-10-16T19:02:37.821Z,11.90
2022-10-16T19:05:06.778Z,11.00
2022-10-16T19:07:34.834Z,12.23
2022-10-16T19:10:03.018Z,12.80
2022-10-16T19:12:31.051Z,13.97
2022-10-16T19:14:58.977Z,14.23
2022-10-16T19:17:28.265Z,15.60
2022-10-16T19:19:57.080Z,14.27
2022-10-16T19:22:40.926Z,15.17
2022-10-16T19:25:10.067Z,14.90
2022-10-16T19:27:38.118Z,16.20
2022-10-16T19:30:07.276Z,14.77
2022-10-16T19:32:36.758Z,15.43
2022-10-16T19:35:05.443Z,16.53
2022-10-16T19:37:33.404Z,16.73
2022-10-16T19:40:01.353Z,17.43
2022-10-16T19:42:29.509Z,17.63
2022-10-16T19:44:57.619Z,18.67
2022-10-16T19:47:25.854Z,27.10
2022-10-16T19:49:55.362Z,23.50
2022-10-16T19:52:23.349Z,23.03
2022-10-16T19:54:51.308Z,22.67
2022-10-16T19:57:19.306Z,24.43
2022-10-16T19:59:47.268Z,24.50
2022-10-16T20:02:15.205Z,22.97
2022-10-16T20:04:43.292Z,25.90
2022-10-16T20:07:12.639Z,24.53
2022-10-16T20:09:40.644Z,22.77
2022-10-16T20:12:08.682Z,23.00
2022-10-16T20:14:36.587Z,25.80
2022-10-16T20:17:04.762Z,24.47
2022-10-16T20:19:34.141Z,23.03
2022-10-16T20:22:03.702Z,24.00
2022-10-16T20:24:33.057Z,23.33
2022-10-16T20:27:01.156Z,21.50
2022-10-16T20:29:29.163Z,22.57
2022-10-16T20:31:57.088Z,21.43
2022-10-16T20:34:25.104Z,21.90
2022-10-16T20:36:53.155Z,22.70
2022-10-16T20:39:21.359Z,22.53
2022-10-16T20:41:50.943Z,20.97
2022-10-16T20:44:19.014Z,20.83
2022-10-16T20:46:47.050Z,20.57
2022-10-16T20:49:28.296Z,20.77
2022-10-16T20:52:04.884Z,18.53
2022-10-16T20:54:32.927Z,20.23
2022-10-16T20:57:02.437Z,18.93
2022-10-16T20:59:30.532Z,18.97
2022-10-16T21:01:58.523Z,18.00
2022-10-16T21:04:26.654Z,18.37
2022-10-16T21:06:54.598Z,16.90
2022-10-16T21:09:22.669Z,18.27
2022-10-16T21:11:50.625Z,17.67
2022-10-16T21:14:20.035Z,17.30
2022-10-16T21:16:47.957Z,15.87
2022-10-16T21:19:15.988Z,16.13
2022-10-16T21:21:44.119Z,16.50
2022-10-16T21:24:16.538Z,13.30
2022-10-16T21:26:45.553Z,13.00
2022-10-16T21:29:14.305Z,12.60
2022-10-16T21:31:44.242Z,13.07
2022-10-16T21:34:12.259Z,12.60
2022-10-16T21:36:42.274Z,13.17
2022-10-16T21:39:12.222Z,12.27
2022-10-16T21:41:40.749Z,13.03
2022-10-16T21:44:10.612Z,12.30
2022-10-16T21:46:39.852Z,12.50
2022-10-16T21:49:13.023Z,13.67
2022-10-16T21:51:42.625Z,12.50
2022-10-16T21:54:13.422Z,12.43
2022-10-16T21:56:41.421Z,11.90
2022-10-16T21:59:09.606Z,11.40
2022-10-16T22:01:37.682Z,11.50
2022-10-16T22:04:05.742Z,12.00
2022-10-16T22:06:35.093Z,10.80
2022-10-16T22:09:03.013Z,11.63
2022-10-16T22:11:36.861Z,11.33
2022-10-16T22:14:06.159Z,11.13
2022-10-16T22:16:34.445Z,11.20
2022-10-16T22:19:03.725Z,11.00
2022-10-16T22:21:32.450Z,10.90
2022-10-16T22:24:02.061Z,12.30
2022-10-16T22:26:30.084Z,12.03
2022-10-16T22:28:58.097Z,11.37
2022-10-16T22:31:26.143Z,10.40
2022-10-16T22:33:58.970Z,11.20
2022-10-16T22:36:27.568Z,9.90
2022-10-16T22:38:55.917Z,9.57
2022-10-16T22:41:25.688Z,10.90
2022-10-16T22:43:54.145Z,10.57
2022-10-16T22:46:24.249Z,10.17
2022-10-16T22:48:52.779Z,10.00
2022-10-16T22:51:21.533Z,9.30
2022-10-16T22:53:50.713Z,9.87
2022-10-16T22:56:20.240Z,9.97
2022-10-16T22:58:49.719Z,10.23
2022-10-16T23:01:20.063Z,9.57
2022-10-16T23:03:48.079Z,9.80
2022-10-16T23:06:16.346Z,8.27
2022-10-16T23:08:44.344Z,9.77
2022-10-16T23:11:13.665Z,9.90
2022-10-16T23:13:45.544Z,9.53
2022-10-16T23:16:16.715Z,10.03
2022-10-16T23:18:45.246Z,8.80
2022-10-16T23:21:14.916Z,8.30
2022-10-16T23:23:43.807Z,9.60
2022-10-16T23:26:13.272Z,9.67
2022-10-16T23:28:41.583Z,8.17
2022-10-16T23:31:10.414Z,7.50
2022-10-16T23:33:40.384Z,6.87
2022-10-16T23:36:09.762Z,6.80
2022-10-16T23:38:37.997Z,7.20
2022-10-16T23:41:06.875Z,6.63
2022-10-16T23:43:35.101Z,6.77
2022-10-16T23:46:03.180Z,6.47
2022-10-16T23:48:31.464Z,5.57
2022-10-16T23:51:00.942Z,5.20
2022-10-16T23:53:28.913Z,4.90
2022-10-16T23:55:57.034Z,4.00
2022-10-16T23:58:24.965Z,3.70
